sensor_id;sensor_type;location;lat;lon;timestamp;temperature;humidity
29431;DHT22;16404;49.902;10.074;2023-09-12T00:01:47;21.80;52.80
29431;DHT22;16404;49.902;10.074;2023-09-12T00:04:32;21.80;52.30
29431;DHT22;16404;49.902;10.074;2023-09-12T00:07:17;21.70;51.30
29431;DHT22;16404;49.902;10.074;2023-09-12T00:10:02;21.70;51.90
29431;DHT22;16404;49.902;10.074;2023-09-12T00:12:46;21.60;51.90
29431;DHT22;16404;49.902;10.074;2023-09-12T00:15:31;21.60;53.00
29431;DHT22;16404;49.902;10.074;2023-09-12T00:18:15;21.60;52.10
29431;DHT22;16404;49.902;10.074;2023-09-12T00:21:00;21.50;50.80
29431;DHT22;16404;49.902;10.074;2023-09-12T00:23:44;21.50;50.60
29431;DHT22;16404;49.902;10.074;2023-09-12T00:26:29;21.40;51.30
29431;DHT22;16404;49.902;10.074;2023-09-12T00:29:15;21.30;51.00
29431;DHT22;16404;49.902;10.074;2023-09-12T00:31:59;21.30;50.10
29431;DHT22;16404;49.902;10.074;2023-09-12T00:34:44;21.30;49.70
29431;DHT22;16404;49.902;10.074;2023-09-12T00:37:28;21.20;49.80
29431;DHT22;16404;49.902;10.074;2023-09-12T00:40:13;21.20;49.30
29431;DHT22;16404;49.902;10.074;2023-09-12T00:42:58;21.20;49.70
29431;DHT22;16404;49.902;10.074;2023-09-12T00:45:43;21.10;48.70
29431;DHT22;16404;49.902;10.074;2023-09-12T00:48:28;21.10;49.00
29431;DHT22;16404;49.902;10.074;2023-09-12T00:51:14;21.10;49.70
29431;DHT22;16404;49.902;10.074;2023-09-12T00:53:59;21.10;50.40
29431;DHT22;16404;49.902;10.074;2023-09-12T00:56:44;21.10;50.70
29431;DHT22;16404;49.902;10.074;2023-09-12T00:59:29;21.10;50.60
29431;DHT22;16404;49.902;10.074;2023-09-12T01:02:14;21.10;52.40
29431;DHT22;16404;49.902;10.074;2023-09-12T01:04:59;21.10;52.00
29431;DHT22;16404;49.902;10.074;2023-09-12T01:07:43;21.20;51.30
29431;DHT22;16404;49.902;10.074;2023-09-12T01:10:29;21.10;52.50
29431;DHT22;16404;49.902;10.074;2023-09-12T01:13:14;21.10;51.90
29431;DHT22;16404;49.902;10.074;2023-09-12T01:15:59;21.00;50.80
29431;DHT22;16404;49.902;10.074;2023-09-12T01:18:44;20.90;52.30
29431;DHT22;16404;49.902;10.074;2023-09-12T01:21:42;20.90;53.40
29431;DHT22;16404;49.902;10.074;2023-09-12T01:27:34;20.80;51.90
29431;DHT22;16404;49.902;10.074;2023-09-12T01:30:24;20.90;51.40
29431;DHT22;16404;49.902;10.074;2023-09-12T01:33:09;20.80;50.70
29431;DHT22;16404;49.902;10.074;2023-09-12T01:35:54;20.80;50.30
29431;DHT22;16404;49.902;10.074;2023-09-12T01:38:38;20.90;50.30
29431;DHT22;16404;49.902;10.074;2023-09-12T01:41:23;20.80;51.20
29431;DHT22;16404;49.902;10.074;2023-09-12T01:44:09;20.80;52.10
29431;DHT22;16404;49.902;10.074;2023-09-12T01:46:55;20.70;51.70
29431;DHT22;16404;49.902;10.074;2023-09-12T01:49:44;20.70;54.00
29431;DHT22;16404;49.902;10.074;2023-09-12T01:52:31;20.80;54.30
29431;DHT22;16404;49.902;10.074;2023-09-12T01:55:16;20.80;53.50
29431;DHT22;16404;49.902;10.074;2023-09-12T01:58:02;20.80;53.60
29431;DHT22;16404;49.902;10.074;2023-09-12T02:00:46;20.70;54.50
29431;DHT22;16404;49.902;10.074;2023-09-12T02:03:31;20.70;54.60
29431;DHT22;16404;49.902;10.074;2023-09-12T02:06:16;20.70;54.50
29431;DHT22;16404;49.902;10.074;2023-09-12T02:09:00;20.70;54.60
29431;DHT22;16404;49.902;10.074;2023-09-12T02:11:45;20.60;53.80
29431;DHT22;16404;49.902;10.074;2023-09-12T02:14:29;20.50;54.20
29431;DHT22;16404;49.902;10.074;2023-09-12T02:17:14;20.50;54.60
29431;DHT22;16404;49.902;10.074;2023-09-12T02:19:59;20.50;54.40
29431;DHT22;16404;49.902;10.074;2023-09-12T02:22:43;20.40;54.50
29431;DHT22;16404;49.902;10.074;2023-09-12T02:25:28;20.50;55.30
29431;DHT22;16404;49.902;10.074;2023-09-12T02:28:12;20.40;56.00
29431;DHT22;16404;49.902;10.074;2023-09-12T02:30:57;20.40;56.40
29431;DHT22;16404;49.902;10.074;2023-09-12T02:33:42;20.40;56.80
29431;DHT22;16404;49.902;10.074;2023-09-12T02:36:28;20.40;57.50
29431;DHT22;16404;49.902;10.074;2023-09-12T02:39:12;20.40;57.00
29431;DHT22;16404;49.902;10.074;2023-09-12T02:41:57;20.40;56.50
29431;DHT22;16404;49.902;10.074;2023-09-12T02:44:41;20.40;56.10
29431;DHT22;16404;49.902;10.074;2023-09-12T02:47:26;20.30;55.00
29431;DHT22;16404;49.902;10.074;2023-09-12T02:50:10;20.30;54.30
29431;DHT22;16404;49.902;10.074;2023-09-12T02:52:55;20.30;53.50
29431;DHT22;16404;49.902;10.074;2023-09-12T02:55:42;20.30;53.00
29431;DHT22;16404;49.902;10.074;2023-09-12T02:58:26;20.30;53.40
29431;DHT22;16404;49.902;10.074;2023-09-12T03:01:15;20.30;53.70
29431;DHT22;16404;49.902;10.074;2023-09-12T03:04:00;20.30;53.50
29431;DHT22;16404;49.902;10.074;2023-09-12T03:06:45;20.30;52.90
29431;DHT22;16404;49.902;10.074;2023-09-12T03:09:29;20.30;52.70
29431;DHT22;16404;49.902;10.074;2023-09-12T03:12:14;20.20;53.40
29431;DHT22;16404;49.902;10.074;2023-09-12T03:14:59;20.30;53.50
29431;DHT22;16404;49.902;10.074;2023-09-12T03:17:43;20.20;52.80
29431;DHT22;16404;49.902;10.074;2023-09-12T03:20:28;20.20;52.50
29431;DHT22;16404;49.902;10.074;2023-09-12T03:23:12;20.20;52.40
29431;DHT22;16404;49.902;10.074;2023-09-12T03:26:04;20.10;53.20
29431;DHT22;16404;49.902;10.074;2023-09-12T03:28:50;20.10;54.50
29431;DHT22;16404;49.902;10.074;2023-09-12T03:31:36;20.10;55.80
29431;DHT22;16404;49.902;10.074;2023-09-12T03:34:20;20.10;56.60
29431;DHT22;16404;49.902;10.074;2023-09-12T03:37:06;20.10;56.30
29431;DHT22;16404;49.902;10.074;2023-09-12T03:39:50;20.10;57.00
29431;DHT22;16404;49.902;10.074;2023-09-12T03:42:35;20.00;56.10
29431;DHT22;16404;49.902;10.074;2023-09-12T03:45:20;20.00;56.40
29431;DHT22;16404;49.902;10.074;2023-09-12T03:48:04;20.00;56.80
29431;DHT22;16404;49.902;10.074;2023-09-12T03:50:49;19.90;56.50
29431;DHT22;16404;49.902;10.074;2023-09-12T03:53:34;19.90;56.10
29431;DHT22;16404;49.902;10.074;2023-09-12T03:56:18;19.80;56.00
29431;DHT22;16404;49.902;10.074;2023-09-12T03:59:04;19.80;55.90
29431;DHT22;16404;49.902;10.074;2023-09-12T04:01:48;19.70;56.10
29431;DHT22;16404;49.902;10.074;2023-09-12T04:04:33;19.70;56.80
29431;DHT22;16404;49.902;10.074;2023-09-12T04:07:18;19.70;57.10
29431;DHT22;16404;49.902;10.074;2023-09-12T04:10:02;19.60;57.10
29431;DHT22;16404;49.902;10.074;2023-09-12T04:12:47;19.60;56.80
29431;DHT22;16404;49.902;10.074;2023-09-12T04:15:32;19.60;56.90
29431;DHT22;16404;49.902;10.074;2023-09-12T04:18:16;19.60;56.20
29431;DHT22;16404;49.902;10.074;2023-09-12T04:21:01;19.60;55.90
29431;DHT22;16404;49.902;10.074;2023-09-12T04:23:46;19.60;55.80
29431;DHT22;16404;49.902;10.074;2023-09-12T04:26:30;19.50;55.80
29431;DHT22;16404;49.902;10.074;2023-09-12T04:29:15;19.50;55.90
29431;DHT22;16404;49.902;10.074;2023-09-12T04:31:59;19.50;56.00
29431;DHT22;16404;49.902;10.074;2023-09-12T04:34:44;19.50;55.70
29431;DHT22;16404;49.902;10.074;2023-09-12T04:37:29;19.60;56.20
29431;DHT22;16404;49.902;10.074;2023-09-12T04:40:14;19.60;56.70
29431;DHT22;16404;49.902;10.074;2023-09-12T04:42:59;19.60;56.10
29431;DHT22;16404;49.902;10.074;2023-09-12T04:45:43;19.50;56.00
29431;DHT22;16404;49.902;10.074;2023-09-12T04:48:28;19.50;55.60
29431;DHT22;16404;49.902;10.074;2023-09-12T04:51:13;19.50;55.00
29431;DHT22;16404;49.902;10.074;2023-09-12T04:53:57;19.50;54.70
29431;DHT22;16404;49.902;10.074;2023-09-12T04:56:42;19.50;54.30
29431;DHT22;16404;49.902;10.074;2023-09-12T04:59:26;19.50;54.40
29431;DHT22;16404;49.902;10.074;2023-09-12T05:02:11;19.50;56.00
29431;DHT22;16404;49.902;10.074;2023-09-12T05:04:55;19.40;56.90
29431;DHT22;16404;49.902;10.074;2023-09-12T05:07:41;19.40;56.60
29431;DHT22;16404;49.902;10.074;2023-09-12T05:10:26;19.40;57.40
29431;DHT22;16404;49.902;10.074;2023-09-12T05:13:10;19.40;59.10
29431;DHT22;16404;49.902;10.074;2023-09-12T05:15:55;19.40;60.00
29431;DHT22;16404;49.902;10.074;2023-09-12T05:18:41;19.50;60.30
29431;DHT22;16404;49.902;10.074;2023-09-12T05:21:25;19.40;59.50
29431;DHT22;16404;49.902;10.074;2023-09-12T05:24:10;19.50;59.90
29431;DHT22;16404;49.902;10.074;2023-09-12T05:26:55;19.50;59.20
29431;DHT22;16404;49.902;10.074;2023-09-12T05:29:40;19.50;58.50
29431;DHT22;16404;49.902;10.074;2023-09-12T05:32:25;19.50;58.70
29431;DHT22;16404;49.902;10.074;2023-09-12T05:35:09;19.60;59.10
29431;DHT22;16404;49.902;10.074;2023-09-12T05:37:54;19.60;59.20
29431;DHT22;16404;49.902;10.074;2023-09-12T05:40:38;19.60;59.10
29431;DHT22;16404;49.902;10.074;2023-09-12T05:43:23;19.70;59.10
29431;DHT22;16404;49.902;10.074;2023-09-12T05:46:08;19.70;59.50
29431;DHT22;16404;49.902;10.074;2023-09-12T05:48:52;19.70;58.50
29431;DHT22;16404;49.902;10.074;2023-09-12T05:51:37;19.70;57.70
29431;DHT22;16404;49.902;10.074;2023-09-12T05:54:21;19.80;57.50
29431;DHT22;16404;49.902;10.074;2023-09-12T05:57:07;19.80;56.60
29431;DHT22;16404;49.902;10.074;2023-09-12T05:59:52;19.80;57.10
29431;DHT22;16404;49.902;10.074;2023-09-12T06:02:36;19.90;56.90
29431;DHT22;16404;49.902;10.074;2023-09-12T06:05:21;19.90;57.80
29431;DHT22;16404;49.902;10.074;2023-09-12T06:08:05;19.90;58.30
29431;DHT22;16404;49.902;10.074;2023-09-12T06:10:50;20.00;57.50
29431;DHT22;16404;49.902;10.074;2023-09-12T06:13:37;20.10;58.20
29431;DHT22;16404;49.902;10.074;2023-09-12T06:16:22;20.20;58.90
29431;DHT22;16404;49.902;10.074;2023-09-12T06:19:06;20.30;59.60
29431;DHT22;16404;49.902;10.074;2023-09-12T06:21:51;20.40;59.70
29431;DHT22;16404;49.902;10.074;2023-09-12T06:24:35;20.50;60.00
29431;DHT22;16404;49.902;10.074;2023-09-12T06:27:20;20.70;60.40
29431;DHT22;16404;49.902;10.074;2023-09-12T06:30:05;20.80;60.10
29431;DHT22;16404;49.902;10.074;2023-09-12T06:32:49;20.90;60.30
29431;DHT22;16404;49.902;10.074;2023-09-12T06:35:34;21.10;59.80
29431;DHT22;16404;49.902;10.074;2023-09-12T06:38:19;21.20;59.60
29431;DHT22;16404;49.902;10.074;2023-09-12T06:41:04;21.30;60.00
29431;DHT22;16404;49.902;10.074;2023-09-12T06:43:48;21.40;59.80
29431;DHT22;16404;49.902;10.074;2023-09-12T06:46:33;21.60;59.80
29431;DHT22;16404;49.902;10.074;2023-09-12T06:49:21;21.70;59.70
29431;DHT22;16404;49.902;10.074;2023-09-12T06:52:06;21.80;59.40
29431;DHT22;16404;49.902;10.074;2023-09-12T06:54:50;22.00;59.30
29431;DHT22;16404;49.902;10.074;2023-09-12T06:57:35;22.10;58.50
29431;DHT22;16404;49.902;10.074;2023-09-12T07:00:19;22.20;58.80
29431;DHT22;16404;49.902;10.074;2023-09-12T07:03:04;22.30;58.90
29431;DHT22;16404;49.902;10.074;2023-09-12T07:05:49;22.50;58.90
29431;DHT22;16404;49.902;10.074;2023-09-12T07:08:33;22.70;58.90
29431;DHT22;16404;49.902;10.074;2023-09-12T07:11:18;22.90;58.50
29431;DHT22;16404;49.902;10.074;2023-09-12T07:14:03;23.10;58.50
29431;DHT22;16404;49.902;10.074;2023-09-12T07:16:48;23.30;58.00
29431;DHT22;16404;49.902;10.074;2023-09-12T07:19:32;23.50;57.70
29431;DHT22;16404;49.902;10.074;2023-09-12T07:22:17;23.80;57.60
29431;DHT22;16404;49.902;10.074;2023-09-12T07:25:01;24.00;57.80
29431;DHT22;16404;49.902;10.074;2023-09-12T07:27:46;24.20;56.80
29431;DHT22;16404;49.902;10.074;2023-09-12T07:30:30;24.40;56.40
29431;DHT22;16404;49.902;10.074;2023-09-12T07:33:15;24.50;55.90
29431;DHT22;16404;49.902;10.074;2023-09-12T07:35:59;24.80;55.50
29431;DHT22;16404;49.902;10.074;2023-09-12T07:38:46;25.00;55.10
29431;DHT22;16404;49.902;10.074;2023-09-12T07:41:31;25.10;54.90
29431;DHT22;16404;49.902;10.074;2023-09-12T07:44:15;25.30;54.80
29431;DHT22;16404;49.902;10.074;2023-09-12T07:47:01;25.50;54.00
29431;DHT22;16404;49.902;10.074;2023-09-12T07:49:45;25.80;53.90
29431;DHT22;16404;49.902;10.074;2023-09-12T07:52:30;25.90;53.10
29431;DHT22;16404;49.902;10.074;2023-09-12T07:55:14;26.10;53.10
29431;DHT22;16404;49.902;10.074;2023-09-12T07:57:59;26.30;52.70
29431;DHT22;16404;49.902;10.074;2023-09-12T08:00:43;26.50;52.40
29431;DHT22;16404;49.902;10.074;2023-09-12T08:03:28;26.70;52.00
29431;DHT22;16404;49.902;10.074;2023-09-12T08:06:12;26.90;51.70
29431;DHT22;16404;49.902;10.074;2023-09-12T08:08:57;27.20;51.20
29431;DHT22;16404;49.902;10.074;2023-09-12T08:11:42;27.60;51.10
29431;DHT22;16404;49.902;10.074;2023-09-12T08:14:26;27.80;49.40
29431;DHT22;16404;49.902;10.074;2023-09-12T08:17:12;27.90;48.90
29431;DHT22;16404;49.902;10.074;2023-09-12T08:19:56;28.10;48.70
29431;DHT22;16404;49.902;10.074;2023-09-12T08:22:40;28.30;48.80
29431;DHT22;16404;49.902;10.074;2023-09-12T08:25:25;28.50;48.00
29431;DHT22;16404;49.902;10.074;2023-09-12T08:28:11;28.60;47.60
29431;DHT22;16404;49.902;10.074;2023-09-12T08:30:55;28.70;47.40
29431;DHT22;16404;49.902;10.074;2023-09-12T08:33:40;28.70;46.90
29431;DHT22;16404;49.902;10.074;2023-09-12T08:36:24;28.90;47.10
29431;DHT22;16404;49.902;10.074;2023-09-12T08:39:17;29.10;47.30
29431;DHT22;16404;49.902;10.074;2023-09-12T08:42:02;29.30;46.80
29431;DHT22;16404;49.902;10.074;2023-09-12T08:44:47;29.70;46.50
29431;DHT22;16404;49.902;10.074;2023-09-12T08:47:31;30.00;45.50
29431;DHT22;16404;49.902;10.074;2023-09-12T08:50:16;30.30;45.20
29431;DHT22;16404;49.902;10.074;2023-09-12T08:53:00;30.60;45.40
29431;DHT22;16404;49.902;10.074;2023-09-12T08:55:45;30.90;45.20
29431;DHT22;16404;49.902;10.074;2023-09-12T08:58:32;31.10;44.60
29431;DHT22;16404;49.902;10.074;2023-09-12T09:01:18;31.30;43.80
29431;DHT22;16404;49.902;10.074;2023-09-12T09:04:04;31.60;44.40
29431;DHT22;16404;49.902;10.074;2023-09-12T09:06:48;31.70;45.30
29431;DHT22;16404;49.902;10.074;2023-09-12T09:09:34;32.10;62.60
29431;DHT22;16404;49.902;10.074;2023-09-12T09:12:19;32.10;43.20
29431;DHT22;16404;49.902;10.074;2023-09-12T09:18:06;32.10;48.40
29431;DHT22;16404;49.902;10.074;2023-09-12T09:23:44;32.10;41.60
29431;DHT22;16404;49.902;10.074;2023-09-12T09:26:55;32.30;42.10
29431;DHT22;16404;49.902;10.074;2023-09-12T09:29:47;32.60;41.80
29431;DHT22;16404;49.902;10.074;2023-09-12T09:32:34;32.70;41.60
29431;DHT22;16404;49.902;10.074;2023-09-12T09:35:19;32.90;41.40
29431;DHT22;16404;49.902;10.074;2023-09-12T09:38:05;32.90;41.10
29431;DHT22;16404;49.902;10.074;2023-09-12T09:40:50;33.00;41.20
29431;DHT22;16404;49.902;10.074;2023-09-12T09:43:35;33.10;40.90
29431;DHT22;16404;49.902;10.074;2023-09-12T09:46:20;33.10;40.70
29431;DHT22;16404;49.902;10.074;2023-09-12T09:49:05;33.20;40.70
29431;DHT22;16404;49.902;10.074;2023-09-12T09:51:51;33.40;40.00
29431;DHT22;16404;49.902;10.074;2023-09-12T09:54:43;33.50;40.30
29431;DHT22;16404;49.902;10.074;2023-09-12T09:57:28;33.60;40.40
29431;DHT22;16404;49.902;10.074;2023-09-12T10:00:13;33.70;39.80
29431;DHT22;16404;49.902;10.074;2023-09-12T10:02:59;33.70;39.00
29431;DHT22;16404;49.902;10.074;2023-09-12T10:05:44;33.80;38.80
29431;DHT22;16404;49.902;10.074;2023-09-12T10:08:29;33.80;38.90
29431;DHT22;16404;49.902;10.074;2023-09-12T10:11:15;33.80;37.90
29431;DHT22;16404;49.902;10.074;2023-09-12T10:14:05;33.80;38.50
29431;DHT22;16404;49.902;10.074;2023-09-12T10:16:50;33.70;38.20
29431;DHT22;16404;49.902;10.074;2023-09-12T10:19:51;33.70;38.40
29431;DHT22;16404;49.902;10.074;2023-09-12T10:22:58;33.50;37.80
29431;DHT22;16404;49.902;10.074;2023-09-12T10:25:45;33.50;38.60
29431;DHT22;16404;49.902;10.074;2023-09-12T10:28:30;33.50;39.00
29431;DHT22;16404;49.902;10.074;2023-09-12T10:31:15;33.40;38.90
29431;DHT22;16404;49.902;10.074;2023-09-12T10:34:01;33.40;39.20
29431;DHT22;16404;49.902;10.074;2023-09-12T10:36:47;33.30;39.50
29431;DHT22;16404;49.902;10.074;2023-09-12T10:39:32;33.20;39.50
29431;DHT22;16404;49.902;10.074;2023-09-12T10:42:20;33.20;39.60
29431;DHT22;16404;49.902;10.074;2023-09-12T10:45:06;33.10;39.40
29431;DHT22;16404;49.902;10.074;2023-09-12T10:47:52;33.10;39.20
29431;DHT22;16404;49.902;10.074;2023-09-12T10:50:37;33.00;39.60
29431;DHT22;16404;49.902;10.074;2023-09-12T10:53:23;33.00;40.00
29431;DHT22;16404;49.902;10.074;2023-09-12T11:01:50;32.90;39.80
29431;DHT22;16404;49.902;10.074;2023-09-12T11:04:36;33.00;39.70
29431;DHT22;16404;49.902;10.074;2023-09-12T11:10:25;32.90;39.70
29431;DHT22;16404;49.902;10.074;2023-09-12T11:13:17;32.90;39.60
29431;DHT22;16404;49.902;10.074;2023-09-12T11:16:15;32.80;40.00
29431;DHT22;16404;49.902;10.074;2023-09-12T11:19:19;32.80;40.30
29431;DHT22;16404;49.902;10.074;2023-09-12T11:22:27;32.80;40.50
29431;DHT22;16404;49.902;10.074;2023-09-12T11:25:18;32.80;40.10
29431;DHT22;16404;49.902;10.074;2023-09-12T11:28:04;32.90;40.10
29431;DHT22;16404;49.902;10.074;2023-09-12T11:30:56;32.90;39.80
29431;DHT22;16404;49.902;10.074;2023-09-12T11:33:44;32.80;39.70
29431;DHT22;16404;49.902;10.074;2023-09-12T11:36:28;32.90;40.00
29431;DHT22;16404;49.902;10.074;2023-09-12T11:39:28;32.90;39.30
29431;DHT22;16404;49.902;10.074;2023-09-12T11:42:13;32.90;39.70
29431;DHT22;16404;49.902;10.074;2023-09-12T11:44:58;33.00;37.90
29431;DHT22;16404;49.902;10.074;2023-09-12T11:47:44;33.00;38.20
29431;DHT22;16404;49.902;10.074;2023-09-12T11:50:30;33.10;38.10
29431;DHT22;16404;49.902;10.074;2023-09-12T11:53:23;33.10;37.90
29431;DHT22;16404;49.902;10.074;2023-09-12T11:56:10;33.00;37.50
29431;DHT22;16404;49.902;10.074;2023-09-12T11:58:55;33.00;36.70
29431;DHT22;16404;49.902;10.074;2023-09-12T12:01:39;33.00;36.80
29431;DHT22;16404;49.902;10.074;2023-09-12T12:04:25;32.90;36.80
29431;DHT22;16404;49.902;10.074;2023-09-12T12:07:10;32.90;38.00
29431;DHT22;16404;49.902;10.074;2023-09-12T12:09:55;33.00;37.50
29431;DHT22;16404;49.902;10.074;2023-09-12T12:12:40;33.10;37.00
29431;DHT22;16404;49.902;10.074;2023-09-12T12:15:29;33.20;37.30
29431;DHT22;16404;49.902;10.074;2023-09-12T12:18:14;33.20;37.20
29431;DHT22;16404;49.902;10.074;2023-09-12T12:20:59;33.30;37.10
29431;DHT22;16404;49.902;10.074;2023-09-12T12:23:44;33.30;36.70
29431;DHT22;16404;49.902;10.074;2023-09-12T12:26:30;33.40;36.70
29431;DHT22;16404;49.902;10.074;2023-09-12T12:29:14;33.40;36.90
29431;DHT22;16404;49.902;10.074;2023-09-12T12:32:02;33.40;36.20
29431;DHT22;16404;49.902;10.074;2023-09-12T12:34:49;33.40;36.00
29431;DHT22;16404;49.902;10.074;2023-09-12T12:37:35;33.40;36.60
29431;DHT22;16404;49.902;10.074;2023-09-12T12:40:20;33.40;36.70
29431;DHT22;16404;49.902;10.074;2023-09-12T12:43:04;33.40;36.10
29431;DHT22;16404;49.902;10.074;2023-09-12T12:45:57;33.60;36.40
29431;DHT22;16404;49.902;10.074;2023-09-12T12:48:43;33.60;36.00
29431;DHT22;16404;49.902;10.074;2023-09-12T12:51:30;33.60;36.00
29431;DHT22;16404;49.902;10.074;2023-09-12T12:54:15;33.50;36.10
29431;DHT22;16404;49.902;10.074;2023-09-12T12:57:00;33.60;36.40
29431;DHT22;16404;49.902;10.074;2023-09-12T12:59:49;33.60;35.80
29431;DHT22;16404;49.902;10.074;2023-09-12T13:02:34;33.60;36.00
29431;DHT22;16404;49.902;10.074;2023-09-12T13:05:25;33.60;35.50
29431;DHT22;16404;49.902;10.074;2023-09-12T13:08:10;33.60;35.70
29431;DHT22;16404;49.902;10.074;2023-09-12T13:10:54;33.60;35.20
29431;DHT22;16404;49.902;10.074;2023-09-12T13:13:40;33.70;35.00
29431;DHT22;16404;49.902;10.074;2023-09-12T13:16:25;33.70;35.60
29431;DHT22;16404;49.902;10.074;2023-09-12T13:19:10;33.80;35.90
29431;DHT22;16404;49.902;10.074;2023-09-12T13:21:57;33.70;35.50
29431;DHT22;16404;49.902;10.074;2023-09-12T13:24:41;33.80;36.50
29431;DHT22;16404;49.902;10.074;2023-09-12T13:27:26;33.90;36.60
29431;DHT22;16404;49.902;10.074;2023-09-12T13:30:11;33.90;36.50
29431;DHT22;16404;49.902;10.074;2023-09-12T13:32:55;34.00;36.90
29431;DHT22;16404;49.902;10.074;2023-09-12T13:35:40;34.00;36.20
29431;DHT22;16404;49.902;10.074;2023-09-12T13:38:24;34.00;36.00
29431;DHT22;16404;49.902;10.074;2023-09-12T13:41:09;34.00;36.30
29431;DHT22;16404;49.902;10.074;2023-09-12T13:43:53;34.10;36.10
29431;DHT22;16404;49.902;10.074;2023-09-12T13:46:38;34.10;35.40
29431;DHT22;16404;49.902;10.074;2023-09-12T13:49:22;34.20;35.60
29431;DHT22;16404;49.902;10.074;2023-09-12T13:52:07;34.10;35.10
29431;DHT22;16404;49.902;10.074;2023-09-12T13:54:51;34.00;35.20
29431;DHT22;16404;49.902;10.074;2023-09-12T13:57:36;34.00;35.50
29431;DHT22;16404;49.902;10.074;2023-09-12T14:00:21;34.00;35.40
29431;DHT22;16404;49.902;10.074;2023-09-12T14:03:05;34.00;35.50
29431;DHT22;16404;49.902;10.074;2023-09-12T14:05:50;34.10;35.60
29431;DHT22;16404;49.902;10.074;2023-09-12T14:08:34;34.20;35.50
29431;DHT22;16404;49.902;10.074;2023-09-12T14:11:19;34.10;34.80
29431;DHT22;16404;49.902;10.074;2023-09-12T14:14:04;34.10;34.60
29431;DHT22;16404;49.902;10.074;2023-09-12T14:16:48;34.10;35.10
29431;DHT22;16404;49.902;10.074;2023-09-12T14:19:33;34.10;34.90
29431;DHT22;16404;49.902;10.074;2023-09-12T14:22:18;34.20;34.70
29431;DHT22;16404;49.902;10.074;2023-09-12T14:25:03;34.20;34.10
29431;DHT22;16404;49.902;10.074;2023-09-12T14:27:47;34.20;35.10
29431;DHT22;16404;49.902;10.074;2023-09-12T14:30:32;34.30;35.30
29431;DHT22;16404;49.902;10.074;2023-09-12T14:33:20;34.20;34.90
29431;DHT22;16404;49.902;10.074;2023-09-12T14:36:07;34.20;35.20
29431;DHT22;16404;49.902;10.074;2023-09-12T14:38:51;34.20;35.00
29431;DHT22;16404;49.902;10.074;2023-09-12T14:41:36;34.20;35.50
29431;DHT22;16404;49.902;10.074;2023-09-12T14:44:26;34.20;34.50
29431;DHT22;16404;49.902;10.074;2023-09-12T14:47:12;34.20;35.20
29431;DHT22;16404;49.902;10.074;2023-09-12T14:49:56;34.20;35.60
29431;DHT22;16404;49.902;10.074;2023-09-12T14:52:41;34.20;35.70
29431;DHT22;16404;49.902;10.074;2023-09-12T14:55:26;34.20;35.90
29431;DHT22;16404;49.902;10.074;2023-09-12T14:58:11;34.20;35.60
29431;DHT22;16404;49.902;10.074;2023-09-12T15:00:55;34.30;35.70
29431;DHT22;16404;49.902;10.074;2023-09-12T15:03:39;34.30;35.40
29431;DHT22;16404;49.902;10.074;2023-09-12T15:06:24;34.20;36.10
29431;DHT22;16404;49.902;10.074;2023-09-12T15:09:09;34.20;35.40
29431;DHT22;16404;49.902;10.074;2023-09-12T15:11:53;34.30;35.50
29431;DHT22;16404;49.902;10.074;2023-09-12T15:14:38;34.40;35.50
29431;DHT22;16404;49.902;10.074;2023-09-12T15:17:22;34.50;35.60
29431;DHT22;16404;49.902;10.074;2023-09-12T15:20:07;34.40;34.50
29431;DHT22;16404;49.902;10.074;2023-09-12T15:22:52;34.50;34.50
29431;DHT22;16404;49.902;10.074;2023-09-12T15:25:36;34.40;34.50
29431;DHT22;16404;49.902;10.074;2023-09-12T15:28:20;34.40;34.80
29431;DHT22;16404;49.902;10.074;2023-09-12T15:31:05;34.30;34.40
29431;DHT22;16404;49.902;10.074;2023-09-12T15:33:50;34.30;34.50
29431;DHT22;16404;49.902;10.074;2023-09-12T15:36:43;34.30;34.70
29431;DHT22;16404;49.902;10.074;2023-09-12T15:39:28;34.20;34.70
29431;DHT22;16404;49.902;10.074;2023-09-12T15:42:12;34.20;34.20
29431;DHT22;16404;49.902;10.074;2023-09-12T15:44:57;34.20;34.20
29431;DHT22;16404;49.902;10.074;2023-09-12T15:47:42;34.20;34.30
29431;DHT22;16404;49.902;10.074;2023-09-12T15:50:26;34.30;34.50
29431;DHT22;16404;49.902;10.074;2023-09-12T15:53:10;34.30;34.50
29431;DHT22;16404;49.902;10.074;2023-09-12T15:55:55;34.30;35.30
29431;DHT22;16404;49.902;10.074;2023-09-12T15:58:40;34.20;34.90
29431;DHT22;16404;49.902;10.074;2023-09-12T16:01:24;34.20;35.40
29431;DHT22;16404;49.902;10.074;2023-09-12T16:04:09;34.20;35.50
29431;DHT22;16404;49.902;10.074;2023-09-12T16:06:53;34.20;35.20
29431;DHT22;16404;49.902;10.074;2023-09-12T16:09:38;34.10;35.30
29431;DHT22;16404;49.902;10.074;2023-09-12T16:12:22;34.10;35.50
29431;DHT22;16404;49.902;10.074;2023-09-12T16:15:07;34.00;35.20
29431;DHT22;16404;49.902;10.074;2023-09-12T16:17:52;34.00;35.30
29431;DHT22;16404;49.902;10.074;2023-09-12T16:20:37;34.00;35.40
29431;DHT22;16404;49.902;10.074;2023-09-12T16:23:21;34.00;35.50
29431;DHT22;16404;49.902;10.074;2023-09-12T16:26:08;33.90;35.60
29431;DHT22;16404;49.902;10.074;2023-09-12T16:28:53;33.90;35.70
29431;DHT22;16404;49.902;10.074;2023-09-12T16:31:37;33.90;36.10
29431;DHT22;16404;49.902;10.074;2023-09-12T16:34:23;33.90;36.30
29431;DHT22;16404;49.902;10.074;2023-09-12T16:37:07;33.80;36.00
29431;DHT22;16404;49.902;10.074;2023-09-12T16:39:52;33.80;36.00
29431;DHT22;16404;49.902;10.074;2023-09-12T16:42:36;33.70;36.00
29431;DHT22;16404;49.902;10.074;2023-09-12T16:45:21;33.70;36.20
29431;DHT22;16404;49.902;10.074;2023-09-12T16:48:05;33.70;36.30
29431;DHT22;16404;49.902;10.074;2023-09-12T16:50:50;33.70;36.20
29431;DHT22;16404;49.902;10.074;2023-09-12T16:53:35;33.60;36.10
29431;DHT22;16404;49.902;10.074;2023-09-12T16:56:19;33.50;36.40
29431;DHT22;16404;49.902;10.074;2023-09-12T16:59:04;33.40;36.50
29431;DHT22;16404;49.902;10.074;2023-09-12T17:01:48;33.30;36.70
29431;DHT22;16404;49.902;10.074;2023-09-12T17:04:34;33.30;36.80
29431;DHT22;16404;49.902;10.074;2023-09-12T17:07:19;33.20;36.70
29431;DHT22;16404;49.902;10.074;2023-09-12T17:10:04;33.10;37.00
29431;DHT22;16404;49.902;10.074;2023-09-12T17:12:48;33.10;37.20
29431;DHT22;16404;49.902;10.074;2023-09-12T17:15:33;33.00;37.50
29431;DHT22;16404;49.902;10.074;2023-09-12T17:18:21;32.90;38.40
29431;DHT22;16404;49.902;10.074;2023-09-12T17:21:06;32.80;38.00
29431;DHT22;16404;49.902;10.074;2023-09-12T17:23:51;32.70;38.00
29431;DHT22;16404;49.902;10.074;2023-09-12T17:26:35;32.60;38.10